createdAt,value
2018-10-07T00:03:27.344Z,9.70
2018-10-07T00:08:20.116Z,9.77
2018-10-07T00:13:12.776Z,9.77
2018-10-07T00:18:05.614Z,10.60
2018-10-07T00:22:58.274Z,9.33
2018-10-07T00:27:50.898Z,9.40
2018-10-07T00:32:43.601Z,10.17
2018-10-07T00:37:36.391Z,9.37
2018-10-07T00:42:29.091Z,9.70
2018-10-07T00:47:21.789Z,9.67
2018-10-07T00:52:14.437Z,10.33
2018-10-07T00:57:07.111Z,9.90
2018-10-07T01:01:59.880Z,10.27
2018-10-07T01:06:52.707Z,10.13
2018-10-07T01:11:45.499Z,10.57
2018-10-07T01:16:38.166Z,10.47
2018-10-07T01:21:30.871Z,10.13
2018-10-07T01:26:23.515Z,9.93
2018-10-07T01:31:16.173Z,10.10
2018-10-07T01:36:08.756Z,10.53
2018-10-07T01:41:01.472Z,11.03
2018-10-07T01:45:54.160Z,10.30
2018-10-07T01:50:46.910Z,10.13
2018-10-07T01:55:39.689Z,10.30
2018-10-07T02:00:32.332Z,11.07
2018-10-07T02:05:25.239Z,10.00
2018-10-07T02:10:17.966Z,9.60
2018-10-07T02:15:10.747Z,10.07
2018-10-07T02:20:03.616Z,10.73
2018-10-07T02:24:56.290Z,11.07
2018-10-07T02:29:49.034Z,10.53
2018-10-07T02:34:41.704Z,10.43
2018-10-07T02:39:34.478Z,10.33
2018-10-07T02:44:27.205Z,11.10
2018-10-07T02:49:20.019Z,10.80
2018-10-07T02:54:12.740Z,10.93
2018-10-07T02:59:06.520Z,10.80
2018-10-07T03:03:59.183Z,10.73
2018-10-07T03:08:51.987Z,10.70
2018-10-07T03:13:44.710Z,10.53
2018-10-07T03:18:37.371Z,10.37
2018-10-07T03:23:30.026Z,10.57
2018-10-07T03:28:22.721Z,10.40
2018-10-07T03:33:15.379Z,10.30
2018-10-07T03:38:08.022Z,9.90
2018-10-07T03:43:00.746Z,10.40
2018-10-07T03:47:53.410Z,10.10
2018-10-07T03:52:46.067Z,10.17
2018-10-07T03:57:38.702Z,10.60
2018-10-07T04:02:31.453Z,10.07
2018-10-07T04:07:24.098Z,10.10
2018-10-07T04:12:16.783Z,10.40
2018-10-07T04:17:09.486Z,9.90
2018-10-07T04:22:02.171Z,10.00
2018-10-07T04:26:54.953Z,10.10
2018-10-07T04:31:47.921Z,11.17
2018-10-07T04:36:40.890Z,10.77
2018-10-07T04:41:33.573Z,11.17
2018-10-07T04:46:26.372Z,10.87
2018-10-07T04:51:19.078Z,10.53
2018-10-07T04:56:11.822Z,10.97
2018-10-07T05:01:04.578Z,11.57
2018-10-07T05:05:57.502Z,11.57
2018-10-07T05:10:52.396Z,11.57
2018-10-07T05:15:47.759Z,11.67
2018-10-07T05:20:40.648Z,11.67
2018-10-07T05:25:33.512Z,11.97
2018-10-07T05:30:26.178Z,11.33
2018-10-07T05:35:18.852Z,12.40
2018-10-07T05:40:11.481Z,12.50
2018-10-07T05:45:04.516Z,14.00
2018-10-07T05:49:57.294Z,14.73
2018-10-07T05:54:50.005Z,15.73
2018-10-07T05:59:42.693Z,16.13
2018-10-07T06:04:45.939Z,17.17
2018-10-07T06:09:38.752Z,17.67
2018-10-07T06:14:48.922Z,18.27
2018-10-07T06:19:41.605Z,19.03
2018-10-07T06:24:35.075Z,19.80
2018-10-07T06:29:27.827Z,22.07
2018-10-07T06:34:20.545Z,23.57
2018-10-07T06:39:13.346Z,23.53
2018-10-07T06:44:06.073Z,24.00
2018-10-07T06:48:58.824Z,23.80
2018-10-07T06:53:51.486Z,22.97
2018-10-07T06:58:44.166Z,20.43
2018-10-07T07:03:36.940Z,17.63
2018-10-07T07:08:29.646Z,11.10
2018-10-07T07:13:22.364Z,10.27
2018-10-07T07:18:15.050Z,9.63
2018-10-07T07:23:07.749Z,9.13
2018-10-07T07:28:00.446Z,8.83
2018-10-07T07:32:53.111Z,9.07
2018-10-07T07:37:45.813Z,8.17
2018-10-07T07:42:38.440Z,7.97
2018-10-07T07:47:31.195Z,6.70
2018-10-07T07:52:23.974Z,6.00
2018-10-07T07:57:16.621Z,4.97
2018-10-07T08:02:09.425Z,4.90
2018-10-07T08:07:02.144Z,4.50
2018-10-07T08:11:54.827Z,4.10
2018-10-07T08:16:47.486Z,3.70
2018-10-07T08:21:40.195Z,4.23
2018-10-07T08:26:32.898Z,3.93
2018-10-07T08:31:25.549Z,3.30
2018-10-07T08:36:18.327Z,2.80
2018-10-07T08:41:11.083Z,2.23
2018-10-07T08:46:03.799Z,2.63
2018-10-07T08:50:56.423Z,1.73
2018-10-07T08:55:49.123Z,1.60
2018-10-07T09:00:41.830Z,1.50
2018-10-07T09:05:34.546Z,1.30
2018-10-07T09:10:27.178Z,1.90
2018-10-07T09:15:19.834Z,1.40
2018-10-07T09:20:12.599Z,1.57
2018-10-07T09:25:05.263Z,1.30
2018-10-07T09:29:57.891Z,1.20
2018-10-07T09:34:50.586Z,0.90
2018-10-07T09:39:43.320Z,1.40
2018-10-07T09:44:35.865Z,0.90
2018-10-07T09:49:28.603Z,1.17
2018-10-07T09:54:21.254Z,0.90
2018-10-07T09:59:13.981Z,0.80
2018-10-07T10:04:06.832Z,1.10
2018-10-07T10:08:59.558Z,1.17
2018-10-07T10:13:52.222Z,0.93
2018-10-07T10:18:50.110Z,1.20
2018-10-07T10:26:07.701Z,0.70
2018-10-07T10:31:07.788Z,1.10
2018-10-07T10:37:12.278Z,0.93
2018-10-07T10:42:14.006Z,0.90
2018-10-07T10:47:15.596Z,0.80
2018-10-07T10:52:21.338Z,1.17
2018-10-07T10:57:24.347Z,1.00
2018-10-07T11:02:29.575Z,1.20
2018-10-07T11:08:36.059Z,1.10
2018-10-07T11:14:13.143Z,0.93
2018-10-07T11:20:22.619Z,1.30
2018-10-07T11:26:36.283Z,1.00
2018-10-07T11:32:45.813Z,0.93
2018-10-07T11:37:57.864Z,1.00
2018-10-07T11:42:58.139Z,1.00
2018-10-07T11:48:06.318Z,2.20
2018-10-07T11:53:20.770Z,1.40
2018-10-07T11:58:13.442Z,1.00
2018-10-07T12:03:06.233Z,0.90
2018-10-07T12:07:58.863Z,0.90
2018-10-07T12:12:51.524Z,1.10
2018-10-07T12:17:44.211Z,1.17
2018-10-07T12:22:36.933Z,1.23
2018-10-07T12:27:29.710Z,1.07
2018-10-07T12:32:22.371Z,1.10
2018-10-07T12:37:14.997Z,1.30
2018-10-07T12:42:07.648Z,2.27
2018-10-07T12:47:00.299Z,3.33
2018-10-07T12:51:53.100Z,2.07
2018-10-07T12:56:45.747Z,0.90
2018-10-07T13:01:38.410Z,0.70
2018-10-07T13:06:31.116Z,1.20
2018-10-07T13:11:24.695Z,0.80
2018-10-07T13:16:17.533Z,0.87
2018-10-07T13:21:10.198Z,0.90
2018-10-07T13:26:02.850Z,0.93
2018-10-07T13:30:55.482Z,0.87
2018-10-07T13:35:48.060Z,0.70
2018-10-07T13:40:40.656Z,0.80
2018-10-07T13:45:33.261Z,0.80
2018-10-07T13:50:25.938Z,0.93
2018-10-07T13:55:18.701Z,1.10
2018-10-07T14:00:11.491Z,0.70
2018-10-07T14:05:04.238Z,1.20
2018-10-07T14:09:56.915Z,1.00
2018-10-07T14:14:49.769Z,1.20
2018-10-07T14:19:42.374Z,0.90
2018-10-07T14:24:35.010Z,0.73
2018-10-07T14:29:27.663Z,0.90
2018-10-07T14:34:20.267Z,0.90
2018-10-07T14:39:13.409Z,1.00
2018-10-07T14:44:06.275Z,1.00
2018-10-07T14:48:59.040Z,1.10
2018-10-07T14:53:51.757Z,0.70
2018-10-07T14:58:44.417Z,0.90
2018-10-07T15:03:37.122Z,0.90
2018-10-07T15:08:29.767Z,1.20
2018-10-07T15:13:22.518Z,1.00
2018-10-07T15:18:15.132Z,1.30
2018-10-07T15:23:07.762Z,1.27
2018-10-07T15:28:00.462Z,1.40
2018-10-07T15:32:53.984Z,1.50
2018-10-07T15:37:46.747Z,1.30
2018-10-07T15:42:39.421Z,1.20
2018-10-07T15:47:32.249Z,1.50
2018-10-07T15:52:25.007Z,1.60
2018-10-07T15:57:17.723Z,1.57
2018-10-07T16:02:10.841Z,1.60
2018-10-07T16:07:04.152Z,1.57
2018-10-07T16:11:56.873Z,1.60
2018-10-07T16:16:49.596Z,1.77
2018-10-07T16:21:42.232Z,2.00
2018-10-07T16:26:35.158Z,1.73
2018-10-07T16:31:27.905Z,2.00
2018-10-07T16:36:20.530Z,1.93
2018-10-07T16:41:13.153Z,1.93
2018-10-07T16:46:06.340Z,2.00
2018-10-07T16:50:59.195Z,4.63
2018-10-07T16:55:51.821Z,2.70
2018-10-07T17:00:44.519Z,4.07
2018-10-07T17:05:37.242Z,2.70
2018-10-07T17:10:29.888Z,2.50
2018-10-07T17:15:22.745Z,2.40
2018-10-07T17:20:15.387Z,2.53
2018-10-07T17:25:08.063Z,3.60
2018-10-07T17:30:00.671Z,3.77
2018-10-07T17:34:53.532Z,4.40
2018-10-07T17:39:46.236Z,3.87
2018-10-07T17:44:38.795Z,3.10
2018-10-07T17:49:31.418Z,5.50
2018-10-07T17:54:24.056Z,3.43
2018-10-07T17:59:16.816Z,3.30
2018-10-07T18:04:09.546Z,3.43
2018-10-07T18:09:02.261Z,3.10
2018-10-07T18:13:54.923Z,3.27
2018-10-07T18:18:47.571Z,2.50
2018-10-07T18:23:40.362Z,3.60
2018-10-07T18:28:33.120Z,3.40
2018-10-07T18:33:25.818Z,3.67
2018-10-07T18:38:18.597Z,3.27
2018-10-07T18:43:11.480Z,3.97
2018-10-07T18:48:04.102Z,3.83
2018-10-07T18:52:56.840Z,4.30
2018-10-07T18:57:49.659Z,4.27
2018-10-07T19:02:42.328Z,4.70
2018-10-07T19:07:35.014Z,4.10
2018-10-07T19:12:27.726Z,4.33
2018-10-07T19:17:20.699Z,4.00
2018-10-07T19:22:13.418Z,3.40
2018-10-07T19:27:06.202Z,3.67
2018-10-07T19:31:58.874Z,4.63
2018-10-07T19:36:51.808Z,3.87
2018-10-07T19:41:44.394Z,7.23
2018-10-07T19:46:37.275Z,4.47
2018-10-07T19:51:29.937Z,3.87
2018-10-07T19:56:22.714Z,4.53
2018-10-07T20:01:15.381Z,5.57
2018-10-07T20:06:08.043Z,4.57
2018-10-07T20:11:00.745Z,7.17
2018-10-07T20:15:53.390Z,5.53
2018-10-07T20:20:45.996Z,4.37
2018-10-07T20:25:38.622Z,4.17
2018-10-07T20:30:31.280Z,3.03
2018-10-07T20:35:24.035Z,3.60
2018-10-07T20:40:16.750Z,2.80
2018-10-07T20:45:09.462Z,3.47
2018-10-07T20:50:02.143Z,3.50
2018-10-07T20:54:54.783Z,3.97
2018-10-07T20:59:47.478Z,4.13
2018-10-07T21:04:40.154Z,3.20
2018-10-07T21:09:32.807Z,3.23
2018-10-07T21:14:25.644Z,3.50
2018-10-07T21:19:18.265Z,3.67
2018-10-07T21:24:10.965Z,3.60
2018-10-07T21:29:03.607Z,3.67
2018-10-07T21:33:56.226Z,3.67
2018-10-07T21:38:48.973Z,3.37
2018-10-07T21:43:41.666Z,3.30
2018-10-07T21:48:34.276Z,3.00
2018-10-07T21:53:26.967Z,3.10
2018-10-07T21:58:19.655Z,2.63
2018-10-07T22:03:12.293Z,2.80
2018-10-07T22:08:04.983Z,3.30
2018-10-07T22:12:57.582Z,4.10
2018-10-07T22:17:50.158Z,4.10
2018-10-07T22:22:42.919Z,4.17
2018-10-07T22:27:35.779Z,3.83
2018-10-07T22:32:28.464Z,4.17
2018-10-07T22:37:21.470Z,4.50
2018-10-07T22:42:14.138Z,4.70
2018-10-07T22:47:06.938Z,4.40
2018-10-07T22:51:59.562Z,4.47
2018-10-07T22:56:52.283Z,4.67
2018-10-07T23:01:45.024Z,4.90
2018-10-07T23:06:37.693Z,4.57
2018-10-07T23:11:30.455Z,4.37
2018-10-07T23:16:23.147Z,5.27
2018-10-07T23:21:15.799Z,5.00
2018-10-07T23:26:08.495Z,4.67
2018-10-07T23:31:01.223Z,5.10
2018-10-07T23:35:53.925Z,5.07
2018-10-07T23:40:48.091Z,4.37
2018-10-07T23:45:40.830Z,5.73
2018-10-07T23:50:33.479Z,5.27
2018-10-07T23:55:26.118Z,5.83
